Clackamas, Oregon
Current Conditions -  °F | °C
As of 7:53 PM on Friday 19 Dec 2014 (Local Time) from KTTD Reporting Station
Light Rain Light Rain  
Wind Chill: 44°   Ceiling: 4600
Heat Index: 48°   Visibility: 10mi
Dew Point: 43°   Wind: 8mph
Humidity: 83%   Direction: 110°ESE
Pressure: 29.99"   Gusts: NA
Location:  45.41°N, 122.55°W
Report Text: KTTD 200353Z 11007KT 10SM -RA BKN046 OVC060 09/06 A2999 RMK AO2 RAB19 SLP155 P0001 T00890061
Loading
Personal Weather Stations






























Interactive Weather Map New forecast layout! Learn more

10-Day Weather Forecast

Advertisements
Track Severe Weather on mobile